createdAt,value
2018-11-06T00:00:02.195Z,44.10
2018-11-06T00:02:30.193Z,43.07
2018-11-06T00:05:03.623Z,41.97
2018-11-06T00:07:31.617Z,40.70
2018-11-06T00:09:59.698Z,46.73
2018-11-06T00:12:27.589Z,44.00
2018-11-06T00:14:58.657Z,41.37
2018-11-06T00:17:26.676Z,44.40
2018-11-06T00:19:54.603Z,41.30
2018-11-06T00:22:22.575Z,39.97
2018-11-06T00:24:50.489Z,38.63
2018-11-06T00:27:18.439Z,41.53
2018-11-06T00:29:46.367Z,38.20
2018-11-06T00:32:14.355Z,35.57
2018-11-06T00:34:42.337Z,37.67
2018-11-06T00:37:10.244Z,40.43
2018-11-06T00:39:38.206Z,40.80
2018-11-06T00:42:06.563Z,41.67
2018-11-06T00:44:34.471Z,42.70
2018-11-06T00:47:02.389Z,37.67
2018-11-06T00:49:30.598Z,41.37
2018-11-06T00:51:58.671Z,42.70
2018-11-06T00:54:26.618Z,41.63
2018-11-06T00:56:54.809Z,44.03
2018-11-06T00:59:22.748Z,44.17
2018-11-06T01:01:50.724Z,44.13
2018-11-06T01:04:18.711Z,43.13
2018-11-06T01:06:46.714Z,44.60
2018-11-06T01:09:16.028Z,42.77
2018-11-06T01:11:44.331Z,50.70
2018-11-06T01:14:12.350Z,50.03
2018-11-06T01:16:41.515Z,46.57
2018-11-06T01:19:10.036Z,44.10
2018-11-06T01:21:38.271Z,37.47
2018-11-06T01:24:07.001Z,37.53
2018-11-06T01:26:35.513Z,36.87
2018-11-06T01:29:03.620Z,37.53
2018-11-06T01:31:32.226Z,39.40
2018-11-06T01:34:00.202Z,35.47
2018-11-06T01:36:29.204Z,35.07
2018-11-06T01:38:57.362Z,41.60
2018-11-06T01:41:25.317Z,34.90
2018-11-06T01:43:53.407Z,33.80
2018-11-06T01:46:21.386Z,34.47
2018-11-06T01:48:49.374Z,35.27
2018-11-06T01:51:17.352Z,31.93
2018-11-06T01:53:45.468Z,36.47
2018-11-06T01:56:13.515Z,33.23
2018-11-06T01:58:41.465Z,33.17
2018-11-06T02:01:09.506Z,33.03
2018-11-06T02:03:38.058Z,32.47
2018-11-06T02:06:06.336Z,34.00
2018-11-06T02:08:34.286Z,34.13
2018-11-06T02:11:02.264Z,33.87
2018-11-06T02:13:30.212Z,34.77
2018-11-06T02:15:58.158Z,33.70
2018-11-06T02:18:26.137Z,34.40
2018-11-06T02:20:54.004Z,34.50
2018-11-06T02:23:21.975Z,35.90
2018-11-06T02:25:50.008Z,34.03
2018-11-06T02:28:17.926Z,30.77
2018-11-06T02:30:45.840Z,32.10
2018-11-06T02:33:14.782Z,31.20
2018-11-06T02:35:42.816Z,30.57
2018-11-06T02:38:11.073Z,33.03
2018-11-06T02:40:40.076Z,35.73
2018-11-06T02:43:07.976Z,35.87
2018-11-06T02:45:36.029Z,37.57
2018-11-06T02:48:04.050Z,33.63
2018-11-06T02:50:32.636Z,35.20
2018-11-06T02:53:00.710Z,33.90
2018-11-06T02:55:28.655Z,34.70
2018-11-06T02:57:56.573Z,35.87
2018-11-06T03:00:24.525Z,32.43
2018-11-06T03:02:52.506Z,29.87
2018-11-06T03:05:20.538Z,32.00
2018-11-06T03:07:48.656Z,34.07
2018-11-06T03:10:16.733Z,34.17
2018-11-06T03:12:45.155Z,27.43
2018-11-06T03:15:13.970Z,25.73
2018-11-06T03:17:41.983Z,27.90
2018-11-06T03:20:10.950Z,26.13
2018-11-06T03:22:39.377Z,26.83
2018-11-06T03:25:07.685Z,19.43
2018-11-06T03:27:35.681Z,20.07
2018-11-06T03:30:03.930Z,18.53
2018-11-06T03:32:32.139Z,19.60
2018-11-06T03:35:00.160Z,20.33
2018-11-06T03:37:28.652Z,18.57
2018-11-06T03:39:56.657Z,19.73
2018-11-06T03:42:25.175Z,19.83
2018-11-06T03:44:53.248Z,21.27
2018-11-06T03:47:21.272Z,22.30
2018-11-06T03:49:49.330Z,34.03
2018-11-06T03:52:17.414Z,33.33
2018-11-06T03:54:45.437Z,42.70
2018-11-06T03:57:13.470Z,43.20
2018-11-06T03:59:41.375Z,43.27
2018-11-06T04:02:09.408Z,34.83
2018-11-06T04:04:37.349Z,33.20
2018-11-06T04:07:05.685Z,27.27
2018-11-06T04:09:33.745Z,29.87
2018-11-06T04:12:02.020Z,34.03
2018-11-06T04:14:30.117Z,35.77
2018-11-06T04:16:58.171Z,29.73
2018-11-06T04:19:26.266Z,28.40
2018-11-06T04:21:54.155Z,32.83
2018-11-06T04:24:22.147Z,35.07
2018-11-06T04:26:50.308Z,38.03
2018-11-06T04:29:18.260Z,31.67
2018-11-06T04:31:46.232Z,35.13
2018-11-06T04:34:14.225Z,30.83
2018-11-06T04:36:42.246Z,28.77
2018-11-06T04:39:10.949Z,21.87
2018-11-06T04:41:39.006Z,20.37
2018-11-06T04:44:08.346Z,21.47
2018-11-06T04:46:36.681Z,17.43
2018-11-06T04:49:05.271Z,19.03
2018-11-06T04:51:33.307Z,18.30
2018-11-06T04:54:01.860Z,17.30
2018-11-06T04:56:30.530Z,19.37
2018-11-06T04:58:58.700Z,15.33
2018-11-06T05:01:26.721Z,17.27
2018-11-06T05:03:54.876Z,14.63
2018-11-06T05:06:22.802Z,16.57
2018-11-06T05:08:50.805Z,16.40
2018-11-06T05:11:18.723Z,17.10
2018-11-06T05:13:46.802Z,17.73
2018-11-06T05:16:15.014Z,17.50
2018-11-06T05:18:42.954Z,15.70
2018-11-06T05:21:10.976Z,17.33
2018-11-06T05:23:39.200Z,20.67
2018-11-06T05:26:07.150Z,20.17
2018-11-06T05:28:35.710Z,19.27
2018-11-06T05:31:03.670Z,21.40
2018-11-06T05:33:31.594Z,21.00
2018-11-06T05:35:59.648Z,18.17
2018-11-06T05:38:27.810Z,17.87
2018-11-06T05:41:00.909Z,19.40
2018-11-06T05:43:28.920Z,20.07
2018-11-06T05:45:57.795Z,19.00
2018-11-06T05:48:25.744Z,20.60
2018-11-06T05:50:53.829Z,19.10
2018-11-06T05:53:21.937Z,19.30
2018-11-06T05:55:50.229Z,19.83
2018-11-06T05:58:18.210Z,17.27
2018-11-06T06:00:47.073Z,17.73
2018-11-06T06:03:15.093Z,18.43
2018-11-06T06:05:43.089Z,15.40
2018-11-06T06:08:11.159Z,16.50
2018-11-06T06:10:39.371Z,15.40
2018-11-06T06:13:07.660Z,13.90
2018-11-06T06:15:35.610Z,13.20
2018-11-06T06:18:03.854Z,13.33
2018-11-06T06:20:31.978Z,14.70
2018-11-06T06:23:00.047Z,14.80
2018-11-06T06:25:27.961Z,17.10
2018-11-06T06:27:56.107Z,26.73
2018-11-06T06:30:24.152Z,30.20
2018-11-06T06:32:52.103Z,31.10
2018-11-06T06:35:20.395Z,30.60
2018-11-06T06:37:48.461Z,31.50
2018-11-06T06:40:17.398Z,37.63
2018-11-06T06:42:46.730Z,33.70
2018-11-06T06:45:16.261Z,39.00
2018-11-06T06:47:44.328Z,36.50
2018-11-06T06:50:13.849Z,39.03
2018-11-06T06:52:42.295Z,39.23
2018-11-06T06:55:11.722Z,41.60
2018-11-06T06:57:40.664Z,37.23
2018-11-06T07:00:12.762Z,37.47
2018-11-06T07:02:41.353Z,30.27
2018-11-06T07:05:11.226Z,37.57
2018-11-06T07:07:40.115Z,37.30
2018-11-06T07:10:09.744Z,41.37
2018-11-06T07:12:38.895Z,38.43
2018-11-06T07:15:08.820Z,30.07
2018-11-06T07:17:37.116Z,32.93
2018-11-06T07:20:07.661Z,31.90
2018-11-06T07:22:35.810Z,37.50
2018-11-06T07:25:05.791Z,31.87
2018-11-06T07:27:34.028Z,36.23
2018-11-06T07:30:02.422Z,25.37
2018-11-06T07:32:30.783Z,20.47
2018-11-06T07:34:59.036Z,31.20
2018-11-06T07:37:26.847Z,28.73
2018-11-06T07:39:55.054Z,28.43
2018-11-06T07:42:24.347Z,29.07
2018-11-06T07:44:52.321Z,35.50
2018-11-06T07:47:20.324Z,30.60
2018-11-06T07:49:48.488Z,35.40
2018-11-06T07:52:16.655Z,30.63
2018-11-06T07:54:44.738Z,31.97
2018-11-06T07:57:12.789Z,29.77
2018-11-06T07:59:40.791Z,29.40
2018-11-06T08:02:09.014Z,32.27
2018-11-06T08:04:37.060Z,31.87
2018-11-06T08:07:05.694Z,35.38
2018-11-06T08:09:33.815Z,32.63
2018-11-06T08:12:01.912Z,34.87
2018-11-06T08:14:29.874Z,33.63
2018-11-06T08:16:57.940Z,31.73
2018-11-06T08:19:26.029Z,32.33
2018-11-06T08:21:54.079Z,33.63
2018-11-06T08:24:22.198Z,31.43
2018-11-06T08:26:50.137Z,32.00
2018-11-06T08:29:18.513Z,29.67
2018-11-06T08:31:47.105Z,35.87
2018-11-06T08:34:14.816Z,37.43
2018-11-06T08:36:43.644Z,38.60
2018-11-06T08:39:11.756Z,35.70
2018-11-06T08:41:40.912Z,31.63
2018-11-06T08:44:08.965Z,29.93
2018-11-06T08:46:37.352Z,31.80
2018-11-06T08:49:05.478Z,28.57
2018-11-06T08:51:33.929Z,28.60
2018-11-06T08:54:02.002Z,28.60
2018-11-06T08:56:30.169Z,29.20
2018-11-06T08:58:58.358Z,30.00
2018-11-06T09:01:26.324Z,27.87
2018-11-06T09:03:54.409Z,27.20
2018-11-06T09:06:22.471Z,29.00
2018-11-06T09:08:50.727Z,26.93
2018-11-06T09:11:19.617Z,29.77
2018-11-06T09:13:47.579Z,28.17
2018-11-06T09:16:15.605Z,29.17
2018-11-06T09:18:43.799Z,31.57
2018-11-06T09:21:11.850Z,38.43
2018-11-06T09:23:39.828Z,39.50
2018-11-06T09:26:07.774Z,42.73
2018-11-06T09:28:35.717Z,37.70
2018-11-06T09:31:04.942Z,34.83
2018-11-06T09:33:32.849Z,30.73
2018-11-06T09:36:00.879Z,24.37
2018-11-06T09:38:28.815Z,25.07
2018-11-06T09:40:56.872Z,25.80
2018-11-06T09:43:24.847Z,23.77
2018-11-06T09:45:52.929Z,21.97
2018-11-06T09:48:21.082Z,25.93
2018-11-06T09:50:49.384Z,23.00
2018-11-06T09:53:17.614Z,22.57
2018-11-06T09:55:45.674Z,30.50
2018-11-06T09:58:13.724Z,28.27
2018-11-06T10:00:41.894Z,25.90
2018-11-06T10:03:09.838Z,19.57
2018-11-06T10:05:37.993Z,22.27
2018-11-06T10:08:06.202Z,26.17
2018-11-06T10:10:34.263Z,21.20
2018-11-06T10:13:02.210Z,18.97
2018-11-06T10:15:30.399Z,19.73
2018-11-06T10:17:58.489Z,16.80
2018-11-06T10:20:26.543Z,16.47
2018-11-06T10:22:54.758Z,12.87
2018-11-06T10:25:24.885Z,15.27
2018-11-06T10:27:53.020Z,15.90
2018-11-06T10:30:21.003Z,13.57
2018-11-06T10:32:48.921Z,15.60
2018-11-06T10:35:18.070Z,16.73
2018-11-06T10:37:46.119Z,13.33
2018-11-06T10:40:16.897Z,12.07
2018-11-06T10:42:45.619Z,12.83
2018-11-06T10:45:14.656Z,14.50
2018-11-06T10:47:42.638Z,13.20
2018-11-06T10:50:11.694Z,9.20
2018-11-06T10:52:39.850Z,7.93
2018-11-06T10:55:08.518Z,9.43
2018-11-06T10:57:37.633Z,8.23
2018-11-06T11:00:10.982Z,7.30
2018-11-06T11:02:44.315Z,7.77
2018-11-06T11:05:12.339Z,6.90
2018-11-06T11:07:40.361Z,7.03
2018-11-06T11:10:08.429Z,7.47
2018-11-06T11:12:36.498Z,5.03
2018-11-06T11:15:04.431Z,3.73
2018-11-06T11:17:32.483Z,4.50
2018-11-06T11:20:00.697Z,4.20
2018-11-06T11:22:28.774Z,4.50
2018-11-06T11:24:56.707Z,4.80
2018-11-06T11:27:24.855Z,5.17
2018-11-06T11:29:52.997Z,3.03
2018-11-06T11:32:21.170Z,2.77
2018-11-06T11:34:50.176Z,4.47
2018-11-06T11:37:18.249Z,4.43
2018-11-06T11:39:46.399Z,3.83
2018-11-06T11:42:14.583Z,3.87
2018-11-06T11:44:43.769Z,2.63
2018-11-06T11:47:11.848Z,4.70
2018-11-06T11:49:40.308Z,2.87
2018-11-06T11:52:08.341Z,3.80
2018-11-06T11:54:36.349Z,3.33
2018-11-06T11:57:04.718Z,3.17
2018-11-06T11:59:32.678Z,3.50
2018-11-06T12:02:00.763Z,4.77
2018-11-06T12:04:28.915Z,3.83
2018-11-06T12:06:56.872Z,4.20
2018-11-06T12:09:24.902Z,3.97
2018-11-06T12:11:52.871Z,4.80
2018-11-06T12:14:20.910Z,4.67
2018-11-06T12:16:48.883Z,3.80
2018-11-06T12:19:17.507Z,4.20
2018-11-06T12:21:45.563Z,4.67
2018-11-06T12:24:13.755Z,4.67
2018-11-06T12:26:41.904Z,5.70
2018-11-06T12:29:10.148Z,5.27
2018-11-06T12:31:39.496Z,6.20
2018-11-06T12:34:30.512Z,6.27
2018-11-06T12:37:00.271Z,5.33
2018-11-06T12:39:28.357Z,5.53
2018-11-06T12:41:56.530Z,6.83
2018-11-06T12:44:24.652Z,6.60
2018-11-06T12:46:52.832Z,7.17
2018-11-06T12:49:22.016Z,5.83
2018-11-06T12:51:50.442Z,6.83
2018-11-06T12:54:19.411Z,8.03
2018-11-06T12:56:48.578Z,9.43
2018-11-06T12:59:16.550Z,7.63
2018-11-06T13:01:44.646Z,5.73
2018-11-06T13:04:12.780Z,5.77
2018-11-06T13:06:47.350Z,5.77
2018-11-06T13:09:15.402Z,8.27
2018-11-06T13:11:43.873Z,5.73
2018-11-06T13:14:11.842Z,6.80
2018-11-06T13:16:40.235Z,6.83
2018-11-06T13:19:09.102Z,8.83
2018-11-06T13:21:38.323Z,6.17
2018-11-06T13:24:06.411Z,8.53
2018-11-06T13:26:34.955Z,8.27
2018-11-06T13:29:03.272Z,6.83
2018-11-06T13:31:32.124Z,8.67
2018-11-06T13:34:00.251Z,7.03
2018-11-06T13:36:28.255Z,9.20
2018-11-06T13:38:56.387Z,9.23
2018-11-06T13:41:24.395Z,8.63
2018-11-06T13:43:52.579Z,8.67
2018-11-06T13:46:20.384Z,8.53
2018-11-06T13:48:48.378Z,6.83
2018-11-06T13:51:17.257Z,8.67
2018-11-06T13:53:47.288Z,8.57
2018-11-06T13:56:15.358Z,9.27
2018-11-06T13:58:43.396Z,9.20
2018-11-06T14:01:11.346Z,8.27
2018-11-06T14:03:39.566Z,7.43
2018-11-06T14:06:08.529Z,10.57
2018-11-06T14:08:36.570Z,8.77
2018-11-06T14:11:04.511Z,7.00
2018-11-06T14:13:32.611Z,6.93
2018-11-06T14:16:00.714Z,6.53
2018-11-06T14:18:28.681Z,7.97
2018-11-06T14:20:56.752Z,9.67
2018-11-06T14:23:24.814Z,8.53
2018-11-06T14:25:52.738Z,9.47
2018-11-06T14:28:20.731Z,10.70
2018-11-06T14:30:48.678Z,8.53
2018-11-06T14:33:16.735Z,7.83
2018-11-06T14:35:44.804Z,10.00
2018-11-06T14:38:12.709Z,8.60
2018-11-06T14:40:40.840Z,8.73
2018-11-06T14:43:08.863Z,10.23
2018-11-06T14:45:36.847Z,7.67
2018-11-06T14:48:05.639Z,10.73
2018-11-06T14:50:33.725Z,9.60
2018-11-06T14:53:02.760Z,9.50
2018-11-06T14:55:30.857Z,9.00
2018-11-06T14:58:00.035Z,9.13
2018-11-06T15:00:29.412Z,9.23
2018-11-06T15:02:57.442Z,8.77
2018-11-06T15:05:25.781Z,8.07
2018-11-06T15:07:53.762Z,8.37
2018-11-06T15:10:21.851Z,6.93
2018-11-06T15:12:50.048Z,7.03
2018-11-06T15:15:18.171Z,9.77
2018-11-06T15:17:47.075Z,10.43
2018-11-06T15:20:22.310Z,9.37
2018-11-06T15:22:50.896Z,9.60
2018-11-06T15:25:19.256Z,11.17
2018-11-06T15:27:47.258Z,11.43
2018-11-06T15:30:16.581Z,10.53
2018-11-06T15:32:44.610Z,11.83
2018-11-06T15:35:13.831Z,9.63
2018-11-06T15:37:41.974Z,10.13
2018-11-06T15:40:12.632Z,10.50
2018-11-06T15:42:40.790Z,9.53
2018-11-06T15:45:10.501Z,9.93
2018-11-06T15:47:38.872Z,8.40
2018-11-06T15:50:08.576Z,10.83
2018-11-06T15:52:36.654Z,11.77
2018-11-06T15:55:05.366Z,12.63
2018-11-06T15:57:33.308Z,10.63
2018-11-06T16:00:01.737Z,12.33
2018-11-06T16:02:29.777Z,12.57
2018-11-06T16:04:58.224Z,12.53
2018-11-06T16:07:26.238Z,11.77
2018-11-06T16:09:54.527Z,12.67
2018-11-06T16:12:22.596Z,13.47
2018-11-06T16:14:50.626Z,10.50
2018-11-06T16:17:18.915Z,11.30
2018-11-06T16:19:46.943Z,9.83
2018-11-06T16:22:14.993Z,9.53
2018-11-06T16:24:43.993Z,10.27
2018-11-06T16:27:12.106Z,11.37
2018-11-06T16:29:40.162Z,9.90
2018-11-06T16:32:08.357Z,10.67
2018-11-06T16:34:36.427Z,19.90
2018-11-06T16:37:05.170Z,16.33
2018-11-06T16:39:33.254Z,12.17
2018-11-06T16:42:01.267Z,16.90
2018-11-06T16:44:29.236Z,12.53
2018-11-06T16:46:57.433Z,13.80
2018-11-06T16:49:25.568Z,19.13
2018-11-06T16:51:53.886Z,17.63
2018-11-06T16:54:22.548Z,12.47
2018-11-06T16:56:50.576Z,14.60
2018-11-06T16:59:18.492Z,11.03
2018-11-06T17:01:46.474Z,19.47
2018-11-06T17:04:14.493Z,13.90
2018-11-06T17:06:43.695Z,32.43
2018-11-06T17:09:11.703Z,32.37
2018-11-06T17:11:39.711Z,30.47
2018-11-06T17:14:07.722Z,19.60
2018-11-06T17:16:36.210Z,16.17
2018-11-06T17:19:04.363Z,24.47
2018-11-06T17:21:35.863Z,22.13
2018-11-06T17:24:07.917Z,20.90
2018-11-06T17:26:37.841Z,21.30
2018-11-06T17:29:05.845Z,13.73
2018-11-06T17:31:34.743Z,17.30
2018-11-06T17:34:04.097Z,15.00
2018-11-06T17:36:32.402Z,17.23
2018-11-06T17:39:03.716Z,17.00
2018-11-06T17:41:32.558Z,15.03
2018-11-06T17:44:00.534Z,12.30
2018-11-06T17:46:28.662Z,11.20
2018-11-06T17:48:56.889Z,12.03
2018-11-06T17:51:25.064Z,11.10
2018-11-06T17:53:53.638Z,12.63
2018-11-06T17:56:22.296Z,11.20
2018-11-06T17:58:55.012Z,12.00
2018-11-06T18:01:23.783Z,12.70
2018-11-06T18:03:52.000Z,9.70
2018-11-06T18:06:20.606Z,10.87
2018-11-06T18:08:48.571Z,10.60
2018-11-06T18:11:16.527Z,11.70
2018-11-06T18:13:44.495Z,13.57
2018-11-06T18:16:12.797Z,11.27
2018-11-06T18:18:40.915Z,12.63
2018-11-06T18:21:09.000Z,11.10
2018-11-06T18:23:37.037Z,11.67
2018-11-06T18:26:05.035Z,13.73
2018-11-06T18:28:33.179Z,14.10
2018-11-06T18:31:02.017Z,13.07
2018-11-06T18:33:30.049Z,13.77
2018-11-06T18:35:58.029Z,17.33
2018-11-06T18:38:27.745Z,17.60
2018-11-06T18:40:57.526Z,15.33
2018-11-06T18:43:25.491Z,19.47
2018-11-06T18:45:53.443Z,16.47
2018-11-06T18:48:21.420Z,17.70
2018-11-06T18:50:49.460Z,21.90
2018-11-06T18:53:18.038Z,15.03
2018-11-06T18:55:46.692Z,18.97
2018-11-06T18:58:15.929Z,20.30
2018-11-06T19:00:44.567Z,16.20
2018-11-06T19:03:12.641Z,19.50
2018-11-06T19:05:41.065Z,14.57
2018-11-06T19:08:09.747Z,24.70
2018-11-06T19:10:38.387Z,16.23
2018-11-06T19:13:06.639Z,23.87
2018-11-06T19:15:34.652Z,16.87
2018-11-06T19:18:03.480Z,16.83
2018-11-06T19:20:31.502Z,18.80
2018-11-06T19:22:59.678Z,23.33
2018-11-06T19:25:27.733Z,18.20
2018-11-06T19:27:55.810Z,27.13
2018-11-06T19:30:24.307Z,20.67
2018-11-06T19:32:52.439Z,31.37
2018-11-06T19:35:20.397Z,27.67
2018-11-06T19:37:48.604Z,25.97
2018-11-06T19:40:17.465Z,31.00
2018-11-06T19:42:46.161Z,22.20
2018-11-06T19:45:14.378Z,34.40
2018-11-06T19:47:42.817Z,25.23
2018-11-06T19:50:13.536Z,26.20
2018-11-06T19:52:41.527Z,26.40
2018-11-06T19:55:12.609Z,30.73
2018-11-06T19:57:41.125Z,22.43
2018-11-06T20:00:14.466Z,23.80
2018-11-06T20:02:43.695Z,24.93
2018-11-06T20:05:11.783Z,24.27
2018-11-06T20:07:41.948Z,30.07
2018-11-06T20:10:13.061Z,19.03
2018-11-06T20:12:42.137Z,29.33
2018-11-06T20:15:11.578Z,30.87
2018-11-06T20:17:40.552Z,22.97
2018-11-06T20:20:10.716Z,26.57
2018-11-06T20:22:39.103Z,19.97
2018-11-06T20:25:07.069Z,24.33
2018-11-06T20:27:35.232Z,24.50
2018-11-06T20:30:03.834Z,27.83
2018-11-06T20:32:31.799Z,22.20
2018-11-06T20:35:00.478Z,19.03
2018-11-06T20:37:28.439Z,24.27
2018-11-06T20:39:56.350Z,25.70
2018-11-06T20:42:24.534Z,18.70
2018-11-06T20:44:52.562Z,20.20
2018-11-06T20:47:20.496Z,23.77
2018-11-06T20:49:48.689Z,22.37
2018-11-06T20:52:16.663Z,18.93
2018-11-06T20:54:44.597Z,19.87
2018-11-06T20:57:12.615Z,13.70
2018-11-06T20:59:40.551Z,24.83
2018-11-06T21:02:08.785Z,15.83
2018-11-06T21:04:36.687Z,24.00
2018-11-06T21:07:06.645Z,17.13
2018-11-06T21:09:34.627Z,17.83
2018-11-06T21:12:04.754Z,18.10
2018-11-06T21:14:33.436Z,16.97
2018-11-06T21:17:01.879Z,19.97
2018-11-06T21:19:29.899Z,17.83
2018-11-06T21:21:58.029Z,15.70
2018-11-06T21:24:25.918Z,24.33
2018-11-06T21:26:53.907Z,21.77
2018-11-06T21:29:22.946Z,21.57
2018-11-06T21:31:50.862Z,18.00
2018-11-06T21:34:18.822Z,21.10
2018-11-06T21:36:46.854Z,24.37
2018-11-06T21:39:14.945Z,19.33
2018-11-06T21:41:42.990Z,18.60
2018-11-06T21:44:10.899Z,14.73
2018-11-06T21:46:39.155Z,13.07
2018-11-06T21:49:07.232Z,16.03
2018-11-06T21:51:35.543Z,15.53
2018-11-06T21:54:03.725Z,13.77
2018-11-06T21:56:32.258Z,16.00
2018-11-06T21:59:00.254Z,12.67
2018-11-06T22:01:28.130Z,12.57
2018-11-06T22:03:56.127Z,12.20
2018-11-06T22:06:24.250Z,10.60
2018-11-06T22:08:52.148Z,13.03
2018-11-06T22:11:19.998Z,15.10
2018-11-06T22:13:48.077Z,10.67
2018-11-06T22:16:16.019Z,11.53
2018-11-06T22:18:44.470Z,10.67
2018-11-06T22:21:12.331Z,13.10
2018-11-06T22:23:40.319Z,15.50
2018-11-06T22:26:08.602Z,13.07
2018-11-06T22:28:36.577Z,14.67
2018-11-06T22:31:04.681Z,12.27
2018-11-06T22:33:32.719Z,15.00
2018-11-06T22:36:00.760Z,11.23
2018-11-06T22:38:28.974Z,13.07
2018-11-06T22:40:57.009Z,16.67
2018-11-06T22:43:25.140Z,9.77
2018-11-06T22:45:54.224Z,11.90
2018-11-06T22:48:22.327Z,12.77
2018-11-06T22:50:50.350Z,12.23
2018-11-06T22:53:18.539Z,17.30
2018-11-06T22:55:46.540Z,12.47
2018-11-06T22:58:14.519Z,11.17
2018-11-06T23:00:48.062Z,12.27
2018-11-06T23:05:49.068Z,15.07
2018-11-06T23:08:22.366Z,12.80
2018-11-06T23:10:50.410Z,12.33
2018-11-06T23:13:18.462Z,11.13
2018-11-06T23:15:46.453Z,15.43
2018-11-06T23:18:17.219Z,12.83
2018-11-06T23:20:45.114Z,12.30
2018-11-06T23:23:13.082Z,11.37
2018-11-06T23:25:41.001Z,16.67
2018-11-06T23:28:08.922Z,14.07
2018-11-06T23:30:36.890Z,14.53
2018-11-06T23:33:05.231Z,14.43
2018-11-06T23:35:33.200Z,15.43
2018-11-06T23:38:01.199Z,16.57
2018-11-06T23:40:29.295Z,13.57
2018-11-06T23:42:57.302Z,11.20
2018-11-06T23:45:25.340Z,18.07
2018-11-06T23:47:53.980Z,18.93
2018-11-06T23:50:22.270Z,16.53
2018-11-06T23:52:50.330Z,13.17
2018-11-06T23:55:18.419Z,16.00
2018-11-06T23:57:46.365Z,17.23
